Airfield :
LOGIN :

Register | Disclaimer

   EN    FR    IT 

 










Legend :    VFR   Marginal VFR   IFR   Intensive IFR   Very Intensive IFR
Visi :
Ceiling :
>= 8 km
>= 3000ft
5 to 8 km
1000 to 3000 ft
1500m to 5 km
500 to 1000 ft
800 to 1500m
200 to 500 ft
< 800m
< 200 ft
Symbols :   Thunderstorms  Fog  Heavy snow  Heavy precipitations  Wind > 20 kt
SIGMETs :     Misc.  Thunderstorms  Icing  Turbulence  Mountain Waves  Volcanic Ashes






- Airport Elevation : 390 ft
- IATA code : TMP


EFTP - Tampere-Pirkkala

CURRENT METAR :
  • 221950Z AUTO 21019G29KT 180V240 9999 -RA OVC012 02/01 Q0964

EXPIRED METARs :
  • 221920Z AUTO 21014KT 160V240 9999 -RA BKN012 04/02 Q0964 RERA
  • 221850Z AUTO 20016G27KT 170V230 9999 RA OVC016 04/03 Q0965
  • 221820Z AUTO 19015G25KT 150V220 9999 -SHRA OVC019 05/03 Q0966
  • 221750Z AUTO 19013KT 160V220 9999 OVC016 05/03 Q0968
  • 221720Z AUTO 19013G23KT 170V230 9999 -SHRA OVC014 05/04 Q0969

TAF AMD TAF EFTP
Valid from the 22 at 18:00 until the 23 at 18:00 UTC


221854Z 2218/2318 20014G24KT 9999 OVC015
BECMG 2219/2221 26018G39KT BKN008 SCT030CB
TEMPO 2221/2224 5000 -SNRA
BECMG 2300/2302 28012KT CAVOK



MET'MAP, your aeronautical weather chart ! - Copyright ORBIFLY December 2007 - Disclaimer

ORBIFLY MET'MAP TEAM :

Programming & Development : Alexandra Zaïnal
Concept & original design : Baudouin d'Aumeries
Assistance for programming : Marc-Olivier Méhu
Technical & hardware support : Manuel Goepfert

Contact : metmap@orbifly.com




SOURCES & CREDITS :

   NOAA